sensor_id;sensor_type;location;lat;lon;timestamp;P1;durP1;ratioP1;P2;durP2;ratioP2
64738;SDS011;51175;51.186;0.276;2023-07-29T00:00:17;17.92;;;12.15;;
64738;SDS011;51175;51.186;0.276;2023-07-29T00:00:47;19.05;;;11.50;;
64738;SDS011;51175;51.186;0.276;2023-07-29T00:01:18;19.48;;;11.55;;
64738;SDS011;51175;51.186;0.276;2023-07-29T00:01:48;18.50;;;10.90;;
64738;SDS011;51175;51.186;0.276;2023-07-29T00:02:19;17.80;;;10.77;;
64738;SDS011;51175;51.186;0.276;2023-07-29T00:02:49;16.95;;;10.13;;
64738;SDS011;51175;51.186;0.276;2023-07-29T00:03:20;15.80;;;10.23;;
64738;SDS011;51175;51.186;0.276;2023-07-29T00:03:50;16.73;;;10.45;;
64738;SDS011;51175;51.186;0.276;2023-07-29T00:04:20;21.42;;;11.88;;
64738;SDS011;51175;51.186;0.276;2023-07-29T00:04:51;18.17;;;11.20;;
64738;SDS011;51175;51.186;0.276;2023-07-29T00:05:21;16.52;;;10.10;;
64738;SDS011;51175;51.186;0.276;2023-07-29T00:05:51;17.75;;;10.80;;
64738;SDS011;51175;51.186;0.276;2023-07-29T00:06:22;18.80;;;11.25;;
64738;SDS011;51175;51.186;0.276;2023-07-29T00:06:53;17.40;;;10.55;;
64738;SDS011;51175;51.186;0.276;2023-07-29T00:07:23;16.67;;;10.30;;
64738;SDS011;51175;51.186;0.276;2023-07-29T00:07:54;15.40;;;10.70;;
64738;SDS011;51175;51.186;0.276;2023-07-29T00:08:24;16.92;;;9.75;;
64738;SDS011;51175;51.186;0.276;2023-07-29T00:08:54;16.13;;;9.73;;
64738;SDS011;51175;51.186;0.276;2023-07-29T00:09:25;15.73;;;11.27;;
64738;SDS011;51175;51.186;0.276;2023-07-29T00:09:55;16.27;;;10.43;;
64738;SDS011;51175;51.186;0.276;2023-07-29T00:10:25;15.02;;;10.55;;
64738;SDS011;51175;51.186;0.276;2023-07-29T00:10:57;14.68;;;9.82;;
64738;SDS011;51175;51.186;0.276;2023-07-29T00:11:27;14.75;;;9.57;;
64738;SDS011;51175;51.186;0.276;2023-07-29T00:11:57;15.52;;;10.18;;
64738;SDS011;51175;51.186;0.276;2023-07-29T00:12:28;16.52;;;10.68;;
64738;SDS011;51175;51.186;0.276;2023-07-29T00:12:58;15.63;;;9.38;;
64738;SDS011;51175;51.186;0.276;2023-07-29T00:13:29;16.85;;;9.68;;
64738;SDS011;51175;51.186;0.276;2023-07-29T00:14:00;16.48;;;9.48;;
64738;SDS011;51175;51.186;0.276;2023-07-29T00:14:33;15.38;;;10.60;;
64738;SDS011;51175;51.186;0.276;2023-07-29T00:15:03;14.68;;;9.68;;
64738;SDS011;51175;51.186;0.276;2023-07-29T00:15:34;16.55;;;9.73;;
64738;SDS011;51175;51.186;0.276;2023-07-29T00:16:05;17.77;;;9.82;;
64738;SDS011;51175;51.186;0.276;2023-07-29T00:16:36;13.85;;;9.27;;
64738;SDS011;51175;51.186;0.276;2023-07-29T00:17:06;18.50;;;10.13;;
64738;SDS011;51175;51.186;0.276;2023-07-29T00:17:36;16.50;;;9.15;;
64738;SDS011;51175;51.186;0.276;2023-07-29T00:18:07;14.90;;;9.05;;
64738;SDS011;51175;51.186;0.276;2023-07-29T00:18:37;17.48;;;9.35;;
64738;SDS011;51175;51.186;0.276;2023-07-29T00:19:07;14.48;;;9.32;;
64738;SDS011;51175;51.186;0.276;2023-07-29T00:19:38;13.60;;;8.93;;
64738;SDS011;51175;51.186;0.276;2023-07-29T00:20:08;14.73;;;9.25;;
64738;SDS011;51175;51.186;0.276;2023-07-29T00:20:39;16.77;;;10.35;;
64738;SDS011;51175;51.186;0.276;2023-07-29T00:21:09;16.35;;;8.85;;
64738;SDS011;51175;51.186;0.276;2023-07-29T00:21:39;12.95;;;8.93;;
64738;SDS011;51175;51.186;0.276;2023-07-29T00:22:11;14.15;;;8.82;;
64738;SDS011;51175;51.186;0.276;2023-07-29T00:22:41;16.10;;;9.77;;
64738;SDS011;51175;51.186;0.276;2023-07-29T00:23:11;14.15;;;8.85;;
64738;SDS011;51175;51.186;0.276;2023-07-29T00:23:42;15.13;;;8.30;;
64738;SDS011;51175;51.186;0.276;2023-07-29T00:24:12;13.57;;;8.75;;
64738;SDS011;51175;51.186;0.276;2023-07-29T00:24:42;13.75;;;8.90;;
64738;SDS011;51175;51.186;0.276;2023-07-29T00:25:13;13.43;;;8.05;;
64738;SDS011;51175;51.186;0.276;2023-07-29T00:25:43;13.90;;;8.05;;
64738;SDS011;51175;51.186;0.276;2023-07-29T00:26:13;12.52;;;7.82;;
64738;SDS011;51175;51.186;0.276;2023-07-29T00:26:44;13.45;;;8.10;;
64738;SDS011;51175;51.186;0.276;2023-07-29T00:27:14;13.77;;;8.88;;
64738;SDS011;51175;51.186;0.276;2023-07-29T00:27:44;14.13;;;8.75;;
64738;SDS011;51175;51.186;0.276;2023-07-29T00:28:15;15.98;;;9.25;;
64738;SDS011;51175;51.186;0.276;2023-07-29T00:28:45;14.57;;;8.32;;
64738;SDS011;51175;51.186;0.276;2023-07-29T00:29:16;13.35;;;7.82;;
64738;SDS011;51175;51.186;0.276;2023-07-29T00:29:46;15.13;;;9.02;;
64738;SDS011;51175;51.186;0.276;2023-07-29T00:30:17;11.68;;;7.63;;
64738;SDS011;51175;51.186;0.276;2023-07-29T00:30:47;11.25;;;6.82;;
64738;SDS011;51175;51.186;0.276;2023-07-29T00:31:17;12.65;;;8.25;;
64738;SDS011;51175;51.186;0.276;2023-07-29T00:31:47;12.93;;;7.55;;
64738;SDS011;51175;51.186;0.276;2023-07-29T00:32:18;13.52;;;7.75;;
64738;SDS011;51175;51.186;0.276;2023-07-29T00:32:48;11.63;;;7.65;;
64738;SDS011;51175;51.186;0.276;2023-07-29T00:33:19;12.98;;;7.95;;
64738;SDS011;51175;51.186;0.276;2023-07-29T00:33:50;12.00;;;8.40;;
64738;SDS011;51175;51.186;0.276;2023-07-29T00:34:22;11.25;;;7.20;;
64738;SDS011;51175;51.186;0.276;2023-07-29T00:34:53;14.57;;;8.23;;
64738;SDS011;51175;51.186;0.276;2023-07-29T00:35:23;13.15;;;8.18;;
64738;SDS011;51175;51.186;0.276;2023-07-29T00:35:53;9.95;;;7.13;;
64738;SDS011;51175;51.186;0.276;2023-07-29T00:36:24;11.40;;;7.32;;
64738;SDS011;51175;51.186;0.276;2023-07-29T00:36:54;11.80;;;7.40;;
64738;SDS011;51175;51.186;0.276;2023-07-29T00:37:24;14.52;;;7.25;;
64738;SDS011;51175;51.186;0.276;2023-07-29T00:37:55;12.18;;;8.05;;
64738;SDS011;51175;51.186;0.276;2023-07-29T00:38:25;11.75;;;7.05;;
64738;SDS011;51175;51.186;0.276;2023-07-29T00:38:55;11.02;;;7.03;;
64738;SDS011;51175;51.186;0.276;2023-07-29T00:39:27;12.20;;;6.85;;
64738;SDS011;51175;51.186;0.276;2023-07-29T00:39:57;11.20;;;6.32;;
64738;SDS011;51175;51.186;0.276;2023-07-29T00:40:28;11.98;;;8.15;;
64738;SDS011;51175;51.186;0.276;2023-07-29T00:41:00;11.75;;;7.10;;
64738;SDS011;51175;51.186;0.276;2023-07-29T00:41:32;10.75;;;7.28;;
64738;SDS011;51175;51.186;0.276;2023-07-29T00:42:02;11.43;;;7.20;;
64738;SDS011;51175;51.186;0.276;2023-07-29T00:42:33;11.98;;;6.57;;
64738;SDS011;51175;51.186;0.276;2023-07-29T00:43:04;10.45;;;6.43;;
64738;SDS011;51175;51.186;0.276;2023-07-29T00:43:34;12.55;;;6.90;;
64738;SDS011;51175;51.186;0.276;2023-07-29T00:44:04;11.50;;;6.82;;
64738;SDS011;51175;51.186;0.276;2023-07-29T00:44:35;11.93;;;7.72;;
64738;SDS011;51175;51.186;0.276;2023-07-29T00:45:05;12.93;;;6.60;;
64738;SDS011;51175;51.186;0.276;2023-07-29T00:45:37;10.32;;;6.45;;
64738;SDS011;51175;51.186;0.276;2023-07-29T00:46:09;12.18;;;6.53;;
64738;SDS011;51175;51.186;0.276;2023-07-29T00:46:39;10.57;;;6.47;;
64738;SDS011;51175;51.186;0.276;2023-07-29T00:47:11;10.15;;;6.75;;
64738;SDS011;51175;51.186;0.276;2023-07-29T00:47:45;10.32;;;6.57;;
64738;SDS011;51175;51.186;0.276;2023-07-29T00:48:16;12.32;;;7.28;;
64738;SDS011;51175;51.186;0.276;2023-07-29T00:48:46;10.27;;;6.00;;
64738;SDS011;51175;51.186;0.276;2023-07-29T00:49:17;9.07;;;5.90;;
64738;SDS011;51175;51.186;0.276;2023-07-29T00:49:48;11.27;;;7.20;;
64738;SDS011;51175;51.186;0.276;2023-07-29T00:50:18;10.15;;;6.55;;
64738;SDS011;51175;51.186;0.276;2023-07-29T00:50:49;10.73;;;6.85;;
64738;SDS011;51175;51.186;0.276;2023-07-29T00:51:20;9.75;;;6.78;;
64738;SDS011;51175;51.186;0.276;2023-07-29T00:51:50;8.43;;;6.20;;
64738;SDS011;51175;51.186;0.276;2023-07-29T00:52:21;8.23;;;5.65;;
64738;SDS011;51175;51.186;0.276;2023-07-29T00:52:51;10.25;;;5.72;;
64738;SDS011;51175;51.186;0.276;2023-07-29T00:53:22;10.98;;;6.07;;
64738;SDS011;51175;51.186;0.276;2023-07-29T00:53:52;9.63;;;6.05;;
64738;SDS011;51175;51.186;0.276;2023-07-29T00:54:22;10.45;;;5.70;;
64738;SDS011;51175;51.186;0.276;2023-07-29T00:54:53;10.45;;;6.20;;
64738;SDS011;51175;51.186;0.276;2023-07-29T00:55:23;9.23;;;5.88;;
64738;SDS011;51175;51.186;0.276;2023-07-29T00:55:54;10.50;;;6.57;;
64738;SDS011;51175;51.186;0.276;2023-07-29T00:56:26;10.95;;;6.18;;
64738;SDS011;51175;51.186;0.276;2023-07-29T00:56:56;8.43;;;5.65;;
64738;SDS011;51175;51.186;0.276;2023-07-29T00:57:26;9.05;;;5.68;;
64738;SDS011;51175;51.186;0.276;2023-07-29T00:57:59;10.40;;;5.38;;
64738;SDS011;51175;51.186;0.276;2023-07-29T00:58:29;9.20;;;5.65;;
64738;SDS011;51175;51.186;0.276;2023-07-29T00:59:01;8.60;;;5.30;;
64738;SDS011;51175;51.186;0.276;2023-07-29T00:59:32;8.32;;;5.38;;
64738;SDS011;51175;51.186;0.276;2023-07-29T01:00:03;9.43;;;6.07;;
64738;SDS011;51175;51.186;0.276;2023-07-29T01:00:35;8.65;;;5.70;;
64738;SDS011;51175;51.186;0.276;2023-07-29T01:01:05;10.70;;;5.70;;
64738;SDS011;51175;51.186;0.276;2023-07-29T01:01:36;7.22;;;4.85;;
64738;SDS011;51175;51.186;0.276;2023-07-29T01:02:06;12.60;;;5.47;;
64738;SDS011;51175;51.186;0.276;2023-07-29T01:02:37;11.48;;;5.03;;
64738;SDS011;51175;51.186;0.276;2023-07-29T01:03:09;8.68;;;5.30;;
64738;SDS011;51175;51.186;0.276;2023-07-29T01:03:39;6.40;;;4.53;;
64738;SDS011;51175;51.186;0.276;2023-07-29T01:04:09;8.15;;;5.28;;
64738;SDS011;51175;51.186;0.276;2023-07-29T01:04:40;10.32;;;5.65;;
64738;SDS011;51175;51.186;0.276;2023-07-29T01:05:14;10.25;;;5.55;;
64738;SDS011;51175;51.186;0.276;2023-07-29T01:05:58;10.00;;;5.30;;
64738;SDS011;51175;51.186;0.276;2023-07-29T01:08:37;8.10;;;5.18;;
64738;SDS011;51175;51.186;0.276;2023-07-29T01:12:42;8.02;;;5.15;;
64738;SDS011;51175;51.186;0.276;2023-07-29T01:16:28;7.13;;;4.28;;
64738;SDS011;51175;51.186;0.276;2023-07-29T01:17:05;6.78;;;4.20;;
64738;SDS011;51175;51.186;0.276;2023-07-29T01:17:43;8.68;;;5.20;;
64738;SDS011;51175;51.186;0.276;2023-07-29T01:18:22;7.38;;;3.90;;
64738;SDS011;51175;51.186;0.276;2023-07-29T01:18:54;7.43;;;4.75;;
64738;SDS011;51175;51.186;0.276;2023-07-29T01:20:37;6.38;;;4.35;;
64738;SDS011;51175;51.186;0.276;2023-07-29T01:21:10;7.18;;;4.18;;
64738;SDS011;51175;51.186;0.276;2023-07-29T01:21:41;7.07;;;3.65;;
64738;SDS011;51175;51.186;0.276;2023-07-29T01:22:11;8.07;;;4.90;;
64738;SDS011;51175;51.186;0.276;2023-07-29T01:22:43;5.90;;;4.13;;
64738;SDS011;51175;51.186;0.276;2023-07-29T01:23:15;6.95;;;4.30;;
64738;SDS011;51175;51.186;0.276;2023-07-29T01:23:45;7.57;;;4.40;;
64738;SDS011;51175;51.186;0.276;2023-07-29T01:24:16;7.38;;;4.43;;
64738;SDS011;51175;51.186;0.276;2023-07-29T01:24:46;7.57;;;3.63;;
64738;SDS011;51175;51.186;0.276;2023-07-29T01:25:16;6.95;;;3.95;;
64738;SDS011;51175;51.186;0.276;2023-07-29T01:25:47;6.30;;;3.40;;
64738;SDS011;51175;51.186;0.276;2023-07-29T01:26:17;7.63;;;3.28;;
64738;SDS011;51175;51.186;0.276;2023-07-29T01:26:47;5.70;;;3.97;;
64738;SDS011;51175;51.186;0.276;2023-07-29T01:27:18;8.98;;;4.32;;
64738;SDS011;51175;51.186;0.276;2023-07-29T01:27:49;7.40;;;3.70;;
64738;SDS011;51175;51.186;0.276;2023-07-29T01:28:21;6.75;;;3.92;;
64738;SDS011;51175;51.186;0.276;2023-07-29T01:28:52;7.78;;;4.75;;
64738;SDS011;51175;51.186;0.276;2023-07-29T01:29:24;5.60;;;3.80;;
64738;SDS011;51175;51.186;0.276;2023-07-29T01:29:54;6.30;;;4.00;;
64738;SDS011;51175;51.186;0.276;2023-07-29T01:30:30;6.35;;;3.67;;
64738;SDS011;51175;51.186;0.276;2023-07-29T01:31:16;6.03;;;3.95;;
64738;SDS011;51175;51.186;0.276;2023-07-29T01:35:58;5.68;;;3.80;;
64738;SDS011;51175;51.186;0.276;2023-07-29T01:40:09;6.40;;;3.88;;
64738;SDS011;51175;51.186;0.276;2023-07-29T01:40:40;5.90;;;3.63;;
64738;SDS011;51175;51.186;0.276;2023-07-29T01:41:13;6.47;;;3.63;;
64738;SDS011;51175;51.186;0.276;2023-07-29T01:41:44;7.47;;;3.28;;
64738;SDS011;51175;51.186;0.276;2023-07-29T01:42:15;5.25;;;3.38;;
64738;SDS011;51175;51.186;0.276;2023-07-29T01:42:46;5.28;;;3.10;;
64738;SDS011;51175;51.186;0.276;2023-07-29T01:43:16;4.95;;;3.22;;
64738;SDS011;51175;51.186;0.276;2023-07-29T01:43:48;7.43;;;2.97;;
64738;SDS011;51175;51.186;0.276;2023-07-29T01:44:20;4.90;;;2.92;;
64738;SDS011;51175;51.186;0.276;2023-07-29T01:44:50;5.68;;;2.72;;
64738;SDS011;51175;51.186;0.276;2023-07-29T01:45:24;5.25;;;3.17;;
64738;SDS011;51175;51.186;0.276;2023-07-29T01:45:56;5.72;;;3.53;;
64738;SDS011;51175;51.186;0.276;2023-07-29T01:46:26;5.53;;;2.92;;
64738;SDS011;51175;51.186;0.276;2023-07-29T01:46:57;9.23;;;2.83;;
64738;SDS011;51175;51.186;0.276;2023-07-29T01:47:27;5.60;;;3.10;;
64738;SDS011;51175;51.186;0.276;2023-07-29T01:47:58;4.93;;;2.80;;
64738;SDS011;51175;51.186;0.276;2023-07-29T01:48:28;4.47;;;3.40;;
64738;SDS011;51175;51.186;0.276;2023-07-29T01:49:00;6.05;;;3.42;;
64738;SDS011;51175;51.186;0.276;2023-07-29T01:49:30;5.18;;;3.17;;
64738;SDS011;51175;51.186;0.276;2023-07-29T01:50:01;5.72;;;3.10;;
64738;SDS011;51175;51.186;0.276;2023-07-29T01:50:31;4.40;;;2.58;;
64738;SDS011;51175;51.186;0.276;2023-07-29T01:51:05;4.03;;;2.55;;
64738;SDS011;51175;51.186;0.276;2023-07-29T01:51:35;4.93;;;3.50;;
64738;SDS011;51175;51.186;0.276;2023-07-29T01:52:05;4.22;;;2.65;;
64738;SDS011;51175;51.186;0.276;2023-07-29T01:52:36;5.55;;;2.58;;
64738;SDS011;51175;51.186;0.276;2023-07-29T01:53:06;5.75;;;3.05;;
64738;SDS011;51175;51.186;0.276;2023-07-29T01:53:37;5.25;;;3.47;;
64738;SDS011;51175;51.186;0.276;2023-07-29T01:54:07;4.10;;;2.60;;
64738;SDS011;51175;51.186;0.276;2023-07-29T01:54:37;4.93;;;2.90;;
64738;SDS011;51175;51.186;0.276;2023-07-29T01:55:08;5.53;;;3.00;;
64738;SDS011;51175;51.186;0.276;2023-07-29T01:55:39;5.88;;;3.00;;
64738;SDS011;51175;51.186;0.276;2023-07-29T01:56:09;5.57;;;3.10;;
64738;SDS011;51175;51.186;0.276;2023-07-29T01:56:39;4.45;;;2.85;;
64738;SDS011;51175;51.186;0.276;2023-07-29T01:57:10;4.60;;;2.42;;
64738;SDS011;51175;51.186;0.276;2023-07-29T01:57:41;4.68;;;2.30;;
64738;SDS011;51175;51.186;0.276;2023-07-29T01:58:11;4.05;;;2.40;;
64738;SDS011;51175;51.186;0.276;2023-07-29T01:58:42;5.68;;;2.65;;
64738;SDS011;51175;51.186;0.276;2023-07-29T01:59:12;4.45;;;2.67;;
64738;SDS011;51175;51.186;0.276;2023-07-29T01:59:44;6.57;;;2.72;;
64738;SDS011;51175;51.186;0.276;2023-07-29T02:00:14;3.63;;;2.35;;
64738;SDS011;51175;51.186;0.276;2023-07-29T02:00:45;4.72;;;2.65;;
64738;SDS011;51175;51.186;0.276;2023-07-29T02:01:16;3.83;;;2.47;;
64738;SDS011;51175;51.186;0.276;2023-07-29T02:01:46;6.10;;;2.85;;
64738;SDS011;51175;51.186;0.276;2023-07-29T02:02:17;3.60;;;2.30;;
64738;SDS011;51175;51.186;0.276;2023-07-29T02:02:47;3.55;;;2.10;;
64738;SDS011;51175;51.186;0.276;2023-07-29T02:03:18;5.18;;;3.25;;
64738;SDS011;51175;51.186;0.276;2023-07-29T02:03:48;3.60;;;2.53;;
64738;SDS011;51175;51.186;0.276;2023-07-29T02:04:24;4.22;;;3.28;;
64738;SDS011;51175;51.186;0.276;2023-07-29T02:04:54;4.10;;;2.50;;
64738;SDS011;51175;51.186;0.276;2023-07-29T02:05:25;3.97;;;2.45;;
64738;SDS011;51175;51.186;0.276;2023-07-29T02:05:56;5.72;;;3.30;;
64738;SDS011;51175;51.186;0.276;2023-07-29T02:06:26;7.22;;;3.55;;
64738;SDS011;51175;51.186;0.276;2023-07-29T02:06:57;3.95;;;2.63;;
64738;SDS011;51175;51.186;0.276;2023-07-29T02:07:27;2.85;;;1.98;;
64738;SDS011;51175;51.186;0.276;2023-07-29T02:07:58;3.88;;;2.20;;
64738;SDS011;51175;51.186;0.276;2023-07-29T02:08:28;4.53;;;2.75;;
64738;SDS011;51175;51.186;0.276;2023-07-29T02:08:58;3.95;;;2.58;;
64738;SDS011;51175;51.186;0.276;2023-07-29T02:09:29;5.00;;;3.03;;
64738;SDS011;51175;51.186;0.276;2023-07-29T02:10:01;4.45;;;2.45;;
64738;SDS011;51175;51.186;0.276;2023-07-29T02:10:31;3.53;;;2.15;;
64738;SDS011;51175;51.186;0.276;2023-07-29T02:11:01;4.70;;;2.55;;
64738;SDS011;51175;51.186;0.276;2023-07-29T02:11:32;5.50;;;2.60;;
64738;SDS011;51175;51.186;0.276;2023-07-29T02:12:02;3.05;;;2.33;;
64738;SDS011;51175;51.186;0.276;2023-07-29T02:12:33;4.28;;;2.90;;
64738;SDS011;51175;51.186;0.276;2023-07-29T02:13:04;4.55;;;2.42;;
64738;SDS011;51175;51.186;0.276;2023-07-29T02:13:34;3.97;;;2.30;;
64738;SDS011;51175;51.186;0.276;2023-07-29T02:14:05;3.63;;;2.55;;
64738;SDS011;51175;51.186;0.276;2023-07-29T02:14:35;3.72;;;2.60;;
64738;SDS011;51175;51.186;0.276;2023-07-29T02:15:05;5.55;;;2.72;;
64738;SDS011;51175;51.186;0.276;2023-07-29T02:15:36;5.10;;;2.72;;
64738;SDS011;51175;51.186;0.276;2023-07-29T02:16:07;4.78;;;2.55;;
64738;SDS011;51175;51.186;0.276;2023-07-29T02:16:37;4.70;;;2.17;;
64738;SDS011;51175;51.186;0.276;2023-07-29T02:17:09;6.35;;;2.60;;
64738;SDS011;51175;51.186;0.276;2023-07-29T02:17:40;4.18;;;2.03;;
64738;SDS011;51175;51.186;0.276;2023-07-29T02:18:11;3.47;;;2.47;;
64738;SDS011;51175;51.186;0.276;2023-07-29T02:18:42;6.72;;;2.70;;
64738;SDS011;51175;51.186;0.276;2023-07-29T02:19:12;4.80;;;2.60;;
64738;SDS011;51175;51.186;0.276;2023-07-29T02:19:42;5.20;;;2.38;;
64738;SDS011;51175;51.186;0.276;2023-07-29T02:20:13;3.75;;;1.95;;
64738;SDS011;51175;51.186;0.276;2023-07-29T02:20:43;4.57;;;2.30;;
64738;SDS011;51175;51.186;0.276;2023-07-29T02:21:19;4.45;;;2.45;;
64738;SDS011;51175;51.186;0.276;2023-07-29T02:21:50;4.53;;;2.40;;
64738;SDS011;51175;51.186;0.276;2023-07-29T02:22:20;3.47;;;2.17;;
64738;SDS011;51175;51.186;0.276;2023-07-29T02:22:50;3.75;;;1.90;;
64738;SDS011;51175;51.186;0.276;2023-07-29T02:23:21;4.97;;;2.95;;
64738;SDS011;51175;51.186;0.276;2023-07-29T02:23:51;2.88;;;1.98;;
64738;SDS011;51175;51.186;0.276;2023-07-29T02:24:22;3.53;;;2.55;;
64738;SDS011;51175;51.186;0.276;2023-07-29T02:24:52;7.82;;;2.97;;
64738;SDS011;51175;51.186;0.276;2023-07-29T02:25:23;2.95;;;2.10;;
64738;SDS011;51175;51.186;0.276;2023-07-29T02:25:53;3.67;;;1.90;;
64738;SDS011;51175;51.186;0.276;2023-07-29T02:26:23;4.55;;;2.28;;
64738;SDS011;51175;51.186;0.276;2023-07-29T02:26:54;4.30;;;2.40;;
64738;SDS011;51175;51.186;0.276;2023-07-29T02:27:24;4.05;;;2.22;;
64738;SDS011;51175;51.186;0.276;2023-07-29T02:27:57;3.40;;;2.40;;
64738;SDS011;51175;51.186;0.276;2023-07-29T02:28:27;4.63;;;1.85;;
64738;SDS011;51175;51.186;0.276;2023-07-29T02:28:57;3.97;;;2.38;;
64738;SDS011;51175;51.186;0.276;2023-07-29T02:29:28;4.30;;;2.40;;
64738;SDS011;51175;51.186;0.276;2023-07-29T02:29:59;3.88;;;2.50;;
64738;SDS011;51175;51.186;0.276;2023-07-29T02:30:29;6.45;;;2.50;;
64738;SDS011;51175;51.186;0.276;2023-07-29T02:31:20;5.57;;;1.92;;
64738;SDS011;51175;51.186;0.276;2023-07-29T02:31:51;3.83;;;2.20;;
64738;SDS011;51175;51.186;0.276;2023-07-29T02:32:21;6.68;;;2.47;;
64738;SDS011;51175;51.186;0.276;2023-07-29T02:32:52;3.05;;;1.92;;
64738;SDS011;51175;51.186;0.276;2023-07-29T02:33:22;4.30;;;2.13;;
64738;SDS011;51175;51.186;0.276;2023-07-29T02:33:52;4.18;;;2.03;;
64738;SDS011;51175;51.186;0.276;2023-07-29T02:34:23;4.85;;;1.85;;
64738;SDS011;51175;51.186;0.276;2023-07-29T02:34:53;4.35;;;2.88;;
64738;SDS011;51175;51.186;0.276;2023-07-29T02:35:24;4.22;;;1.90;;
64738;SDS011;51175;51.186;0.276;2023-07-29T02:35:54;3.35;;;2.13;;
64738;SDS011;51175;51.186;0.276;2023-07-29T02:36:24;3.08;;;2.08;;
64738;SDS011;51175;51.186;0.276;2023-07-29T02:36:55;3.58;;;2.08;;
64738;SDS011;51175;51.186;0.276;2023-07-29T02:37:25;5.07;;;2.92;;
64738;SDS011;51175;51.186;0.276;2023-07-29T02:37:55;7.20;;;2.25;;
64738;SDS011;51175;51.186;0.276;2023-07-29T02:38:26;4.85;;;2.33;;
64738;SDS011;51175;51.186;0.276;2023-07-29T02:38:56;3.25;;;1.83;;
64738;SDS011;51175;51.186;0.276;2023-07-29T02:39:27;3.60;;;2.28;;
64738;SDS011;51175;51.186;0.276;2023-07-29T02:39:57;4.35;;;2.13;;
64738;SDS011;51175;51.186;0.276;2023-07-29T02:40:27;3.78;;;1.77;;
64738;SDS011;51175;51.186;0.276;2023-07-29T02:40:59;5.05;;;2.22;;
64738;SDS011;51175;51.186;0.276;2023-07-29T02:41:29;4.40;;;2.30;;
64738;SDS011;51175;51.186;0.276;2023-07-29T02:41:59;3.38;;;1.90;;
64738;SDS011;51175;51.186;0.276;2023-07-29T02:42:30;4.93;;;2.30;;
64738;SDS011;51175;51.186;0.276;2023-07-29T02:43:00;2.90;;;1.83;;
64738;SDS011;51175;51.186;0.276;2023-07-29T02:43:31;2.70;;;1.85;;
64738;SDS011;51175;51.186;0.276;2023-07-29T02:44:01;3.65;;;2.15;;
64738;SDS011;51175;51.186;0.276;2023-07-29T02:44:32;3.90;;;2.28;;
64738;SDS011;51175;51.186;0.276;2023-07-29T02:45:02;3.22;;;2.13;;
64738;SDS011;51175;51.186;0.276;2023-07-29T02:45:33;4.00;;;2.10;;
64738;SDS011;51175;51.186;0.276;2023-07-29T02:46:04;4.55;;;2.38;;
64738;SDS011;51175;51.186;0.276;2023-07-29T02:46:34;3.53;;;2.10;;
64738;SDS011;51175;51.186;0.276;2023-07-29T02:47:04;3.85;;;1.88;;
64738;SDS011;51175;51.186;0.276;2023-07-29T02:47:35;4.13;;;2.30;;
64738;SDS011;51175;51.186;0.276;2023-07-29T02:48:06;3.95;;;2.42;;
64738;SDS011;51175;51.186;0.276;2023-07-29T02:48:37;2.95;;;1.80;;
64738;SDS011;51175;51.186;0.276;2023-07-29T02:49:07;3.00;;;1.95;;
64738;SDS011;51175;51.186;0.276;2023-07-29T02:49:37;3.28;;;2.20;;
64738;SDS011;51175;51.186;0.276;2023-07-29T02:50:08;4.70;;;2.45;;
64738;SDS011;51175;51.186;0.276;2023-07-29T02:50:39;5.43;;;1.83;;
64738;SDS011;51175;51.186;0.276;2023-07-29T02:51:09;3.50;;;2.03;;
64738;SDS011;51175;51.186;0.276;2023-07-29T02:51:39;3.88;;;2.05;;
64738;SDS011;51175;51.186;0.276;2023-07-29T02:52:10;2.53;;;1.70;;
64738;SDS011;51175;51.186;0.276;2023-07-29T02:52:40;3.88;;;2.78;;
64738;SDS011;51175;51.186;0.276;2023-07-29T02:53:10;4.63;;;2.00;;
64738;SDS011;51175;51.186;0.276;2023-07-29T02:53:41;4.35;;;2.38;;
64738;SDS011;51175;51.186;0.276;2023-07-29T02:54:11;5.25;;;2.20;;
64738;SDS011;51175;51.186;0.276;2023-07-29T02:54:42;5.22;;;2.17;;
64738;SDS011;51175;51.186;0.276;2023-07-29T02:55:12;4.85;;;1.85;;
64738;SDS011;51175;51.186;0.276;2023-07-29T02:55:43;4.03;;;2.10;;
64738;SDS011;51175;51.186;0.276;2023-07-29T02:56:13;4.70;;;2.33;;
64738;SDS011;51175;51.186;0.276;2023-07-29T02:56:44;3.70;;;2.00;;
64738;SDS011;51175;51.186;0.276;2023-07-29T02:57:14;3.28;;;1.63;;
64738;SDS011;51175;51.186;0.276;2023-07-29T02:57:45;3.38;;;1.92;;
64738;SDS011;51175;51.186;0.276;2023-07-29T02:58:15;4.85;;;2.75;;
64738;SDS011;51175;51.186;0.276;2023-07-29T02:58:45;3.63;;;2.28;;
64738;SDS011;51175;51.186;0.276;2023-07-29T02:59:16;3.45;;;1.98;;
64738;SDS011;51175;51.186;0.276;2023-07-29T02:59:46;4.13;;;2.20;;
64738;SDS011;51175;51.186;0.276;2023-07-29T03:00:17;3.80;;;1.77;;
64738;SDS011;51175;51.186;0.276;2023-07-29T03:00:47;5.15;;;1.90;;
64738;SDS011;51175;51.186;0.276;2023-07-29T03:01:18;2.53;;;1.90;;
64738;SDS011;51175;51.186;0.276;2023-07-29T03:01:49;6.22;;;2.67;;
64738;SDS011;51175;51.186;0.276;2023-07-29T03:02:19;2.78;;;1.70;;
64738;SDS011;51175;51.186;0.276;2023-07-29T03:02:50;3.13;;;1.90;;
64738;SDS011;51175;51.186;0.276;2023-07-29T03:03:20;2.60;;;1.80;;
64738;SDS011;51175;51.186;0.276;2023-07-29T03:03:51;3.97;;;2.80;;
64738;SDS011;51175;51.186;0.276;2023-07-29T03:04:21;4.97;;;1.90;;
64738;SDS011;51175;51.186;0.276;2023-07-29T03:04:52;3.80;;;2.03;;
64738;SDS011;51175;51.186;0.276;2023-07-29T03:05:22;3.75;;;1.75;;
64738;SDS011;51175;51.186;0.276;2023-07-29T03:05:59;3.67;;;1.60;;
64738;SDS011;51175;51.186;0.276;2023-07-29T03:06:31;3.30;;;1.92;;
64738;SDS011;51175;51.186;0.276;2023-07-29T03:07:01;3.63;;;1.83;;
64738;SDS011;51175;51.186;0.276;2023-07-29T03:07:32;3.97;;;1.88;;
64738;SDS011;51175;51.186;0.276;2023-07-29T03:08:02;2.40;;;1.70;;
64738;SDS011;51175;51.186;0.276;2023-07-29T03:08:33;3.72;;;1.48;;
64738;SDS011;51175;51.186;0.276;2023-07-29T03:09:04;3.13;;;1.85;;
64738;SDS011;51175;51.186;0.276;2023-07-29T03:09:34;2.30;;;1.65;;
64738;SDS011;51175;51.186;0.276;2023-07-29T03:10:06;3.38;;;1.88;;
64738;SDS011;51175;51.186;0.276;2023-07-29T03:10:36;2.70;;;1.77;;
64738;SDS011;51175;51.186;0.276;2023-07-29T03:11:11;2.72;;;1.73;;
64738;SDS011;51175;51.186;0.276;2023-07-29T03:11:43;4.25;;;1.88;;
64738;SDS011;51175;51.186;0.276;2023-07-29T03:12:14;3.50;;;1.92;;
64738;SDS011;51175;51.186;0.276;2023-07-29T03:12:44;3.92;;;1.90;;
64738;SDS011;51175;51.186;0.276;2023-07-29T03:13:15;2.63;;;1.65;;
64738;SDS011;51175;51.186;0.276;2023-07-29T03:13:45;3.50;;;1.83;;
64738;SDS011;51175;51.186;0.276;2023-07-29T03:14:15;2.55;;;1.80;;
64738;SDS011;51175;51.186;0.276;2023-07-29T03:14:47;4.95;;;2.15;;
64738;SDS011;51175;51.186;0.276;2023-07-29T03:15:18;2.50;;;1.52;;
64738;SDS011;51175;51.186;0.276;2023-07-29T03:15:49;4.80;;;2.10;;
64738;SDS011;51175;51.186;0.276;2023-07-29T03:16:19;2.53;;;1.80;;
64738;SDS011;51175;51.186;0.276;2023-07-29T03:16:49;2.90;;;1.75;;
64738;SDS011;51175;51.186;0.276;2023-07-29T03:17:20;3.72;;;1.65;;
64738;SDS011;51175;51.186;0.276;2023-07-29T03:17:50;2.63;;;1.67;;
64738;SDS011;51175;51.186;0.276;2023-07-29T03:18:21;3.20;;;1.90;;
64738;SDS011;51175;51.186;0.276;2023-07-29T03:18:51;4.40;;;2.00;;
64738;SDS011;51175;51.186;0.276;2023-07-29T03:19:22;2.88;;;1.80;;
64738;SDS011;51175;51.186;0.276;2023-07-29T03:19:52;4.78;;;2.00;;
64738;SDS011;51175;51.186;0.276;2023-07-29T03:20:22;3.53;;;1.90;;
64738;SDS011;51175;51.186;0.276;2023-07-29T03:20:55;4.82;;;1.92;;
64738;SDS011;51175;51.186;0.276;2023-07-29T03:21:26;3.15;;;1.75;;
64738;SDS011;51175;51.186;0.276;2023-07-29T03:21:56;4.13;;;1.73;;
64738;SDS011;51175;51.186;0.276;2023-07-29T03:22:26;3.53;;;1.83;;
64738;SDS011;51175;51.186;0.276;2023-07-29T03:22:57;2.67;;;1.85;;
64738;SDS011;51175;51.186;0.276;2023-07-29T03:23:27;2.75;;;1.50;;